Time;durP1;ratioP1;P1;durP2;ratioP2;P2;SDS_P1;SDS_P2;PMS_P1;PMS_P2;Temp;Humidity;BMP_temperature;BMP_pressure;BME280_temperature;BME280_humidity;BME280_pressure;Samples;Min_cycle;Max_cycle;Signal;HPM_P1;HPM_P2
2021/11/17 02:26:59;;;;;;;14.15;7.07;;;;;;;5.47;60.45;101626.69;7988950;28;20797;-66
2021/11/17 02:31:05;;;;;;;14.88;7.65;;;;;;;5.47;60.17;101610.19;7988333;28;20115;-67
2021/11/17 02:35:07;;;;;;;13.25;7.05;;;;;;;5.47;60.15;101613.66;7993766;28;20037;-66
2021/11/17 02:39:12;;;;;;;13.10;7.68;;;;;;;5.48;60.27;101611.84;7989014;28;20067;-66
2021/11/17 02:43:03;;;;;;;11.68;6.20;;;;;;;5.49;60.52;101601.41;7984067;28;20082;-67
2021/11/17 02:47:21;;;;;;;14.68;6.60;;;;;;;5.50;60.32;101590.06;7999883;28;20436;-67
2021/11/17 02:51:39;;;;;;;12.60;6.68;;;;;;;5.50;60.39;101594.44;7993025;28;20091;-67
2021/11/17 02:55:51;;;;;;;12.57;6.63;;;;;;;5.49;60.31;101592.72;7995772;28;20647;-66
2021/11/17 03:00:26;;;;;;;11.93;6.25;;;;;;;5.46;60.29;101583.28;7998505;28;20045;-66
2021/11/17 03:04:30;;;;;;;11.90;6.20;;;;;;;5.49;60.54;101590.97;7941497;28;20061;-67
2021/11/17 03:08:48;;;;;;;14.85;7.72;;;;;;;5.48;60.41;101589.25;7989773;28;20494;-66
2021/11/17 03:12:52;;;;;;;14.55;7.68;;;;;;;5.41;60.65;101576.50;7994349;28;20063;-67
2021/11/17 03:17:05;;;;;;;15.00;7.32;;;;;;;5.50;60.32;101584.88;7993610;28;20461;-66
2021/11/17 03:21:17;;;;;;;12.80;7.20;;;;;;;5.50;60.60;101594.44;7988918;28;20041;-67
2021/11/17 03:25:35;;;;;;;12.52;7.13;;;;;;;5.50;60.53;101586.63;7988315;28;20033;-67
2021/11/17 03:29:38;;;;;;;12.20;6.40;;;;;;;5.49;60.30;101593.59;7993511;28;20045;-67
2021/11/17 03:33:35;;;;;;;8.68;5.25;;;;;;;5.52;60.52;101597.81;8002553;28;20393;-67
2021/11/17 03:37:50;;;;;;;9.10;5.60;;;;;;;5.53;60.57;101613.44;7999141;28;20041;-66
2021/11/17 03:42:03;;;;;;;12.43;6.45;;;;;;;5.53;60.76;101603.00;7996401;28;20138;-67
2021/11/17 03:45:59;;;;;;;11.98;6.35;;;;;;;5.55;60.43;101593.38;7994283;28;20036;-67
2021/11/17 03:49:59;;;;;;;10.15;5.82;;;;;;;5.57;60.36;101594.19;8000383;28;20036;-67
2021/11/17 03:54:11;;;;;;;11.15;6.30;;;;;;;5.59;60.76;101604.56;7996267;28;20128;-67
2021/11/17 03:58:20;;;;;;;9.82;5.78;;;;;;;5.58;60.35;101624.56;7997714;28;20477;-66
2021/11/17 04:02:41;;;;;;;10.80;6.80;;;;;;;5.58;60.41;101619.34;7994514;28;20064;-67
2021/11/17 04:06:41;;;;;;;11.10;6.22;;;;;;;5.59;60.52;101626.25;7993582;28;20048;-66
2021/11/17 04:10:57;;;;;;;12.75;6.97;;;;;;;5.58;60.85;101624.56;7991198;28;20087;-67
2021/11/17 04:15:20;;;;;;;10.73;5.93;;;;;;;5.58;60.73;101632.38;7993443;28;20040;-66
2021/11/17 04:19:48;;;;;;;12.85;6.65;;;;;;;5.58;60.81;101632.38;7996094;28;20436;-67
2021/11/17 04:24:00;;;;;;;12.50;6.78;;;;;;;5.57;60.44;101637.63;7990917;28;20107;-66
2021/11/17 04:28:07;;;;;;;13.48;7.38;;;;;;;5.57;60.87;101641.09;7994614;28;20064;-66
2021/11/17 04:32:10;;;;;;;12.68;7.20;;;;;;;5.58;60.57;101652.38;8000057;28;20025;-66
2021/11/17 04:36:14;;;;;;;12.75;7.03;;;;;;;5.59;60.65;101643.66;7996491;28;20049;-66
2021/11/17 04:40:27;;;;;;;13.32;7.63;;;;;;;5.58;60.83;101648.00;7988547;28;20033;-67
2021/11/17 04:44:45;;;;;;;12.20;7.35;;;;;;;5.60;60.91;101642.75;8006305;28;20434;-67
2021/11/17 04:48:56;;;;;;;13.05;7.60;;;;;;;5.60;60.82;101646.19;8004135;28;20071;-66
2021/11/17 04:53:09;;;;;;;13.48;7.60;;;;;;;5.60;60.95;101638.38;7994624;28;20057;-67
2021/11/17 04:57:05;;;;;;;13.15;7.13;;;;;;;5.62;61.02;101636.59;7999606;28;20025;-67
2021/11/17 05:01:04;;;;;;;12.77;6.65;;;;;;;5.64;61.01;101623.50;7998875;28;20446;-66
2021/11/17 05:05:20;;;;;;;15.55;7.68;;;;;;;5.63;60.62;101632.22;7997271;28;20128;-66
2021/11/17 05:09:17;;;;;;;12.70;6.90;;;;;;;5.63;60.74;101632.22;7995855;28;20047;-67
2021/11/17 05:13:22;;;;;;;15.07;7.47;;;;;;;5.66;60.94;101642.53;7996319;28;20033;-67
2021/11/17 05:17:26;;;;;;;14.98;8.00;;;;;;;5.66;60.99;101632.13;7995689;28;20037;-67
2021/11/17 05:21:31;;;;;;;12.02;6.85;;;;;;;5.67;60.98;101626.00;7993133;28;20128;-66
2021/11/17 05:25:49;;;;;;;15.73;8.75;;;;;;;5.67;61.08;101646.00;7997697;28;20212;-67
2021/11/17 05:29:58;;;;;;;10.73;6.53;;;;;;;5.64;61.07;101639.97;7989602;28;20625;-67
2021/11/17 05:33:58;;;;;;;13.18;7.70;;;;;;;5.66;60.82;101634.72;7995971;28;20087;-66
2021/11/17 05:37:57;;;;;;;13.85;7.53;;;;;;;5.66;60.85;101626.91;7992884;28;20029;-66
2021/11/17 05:42:07;;;;;;;14.75;7.57;;;;;;;5.67;60.78;101617.31;7999034;28;20393;-67
2021/11/17 05:46:29;;;;;;;15.85;8.05;;;;;;;5.66;60.82;101606.03;7994546;28;20071;-67
2021/11/17 05:50:27;;;;;;;12.95;7.40;;;;;;;5.68;61.08;101601.66;7984919;28;20029;-67
2021/11/17 05:54:49;;;;;;;16.52;8.30;;;;;;;5.67;61.07;101581.69;7988851;28;20150;-66
2021/11/17 05:59:03;;;;;;;16.52;8.55;;;;;;;5.66;60.84;101598.22;7996179;28;20112;-66
2021/11/17 06:03:08;;;;;;;15.23;7.45;;;;;;;5.67;61.07;101589.50;7993182;28;20029;-66
2021/11/17 06:06:59;;;;;;;12.85;6.90;;;;;;;5.69;60.92;101602.47;7989296;28;20656;-66
2021/11/17 06:10:55;;;;;;;13.30;7.53;;;;;;;5.70;61.04;101592.00;7992608;28;20485;-66
2021/11/17 06:14:50;;;;;;;15.48;7.88;;;;;;;5.72;61.08;101603.25;7984871;28;20102;-66
2021/11/17 06:18:42;;;;;;;14.98;7.82;;;;;;;5.73;60.70;101604.91;7984611;28;20029;-66
2021/11/17 06:22:35;;;;;;;15.88;7.10;;;;;;;5.69;60.81;101595.50;7988375;28;20037;-66
2021/11/17 06:26:31;;;;;;;14.15;7.43;;;;;;;5.76;60.70;101606.59;7984396;28;20033;-66
2021/11/17 06:30:23;;;;;;;13.93;7.90;;;;;;;5.76;61.01;101610.06;7989085;28;20034;-66
2021/11/17 06:34:25;;;;;;;14.15;7.50;;;;;;;5.78;60.69;101597.81;7994054;28;20577;-66
2021/11/17 06:38:18;;;;;;;13.25;7.63;;;;;;;5.78;60.60;101609.97;7996447;28;20046;-67
2021/11/17 06:42:12;;;;;;;13.82;7.30;;;;;;;5.78;60.64;101597.81;8000564;28;20025;-66
2021/11/17 06:46:02;;;;;;;10.73;6.32;;;;;;;5.79;60.90;101602.13;7999270;28;20036;-66
2021/11/17 06:49:54;;;;;;;12.18;7.43;;;;;;;5.80;61.11;101601.22;7992189;28;20082;-67
2021/11/17 06:53:44;;;;;;;11.88;7.30;;;;;;;5.78;60.63;101600.41;7992270;28;20029;-67
2021/11/17 06:57:44;;;;;;;11.82;6.70;;;;;;;5.80;61.02;101603.81;7995916;28;20061;-67
2021/11/17 07:01:35;;;;;;;10.82;6.72;;;;;;;5.80;60.88;101592.53;7990987;28;20059;-68
2021/11/17 07:05:26;;;;;;;9.95;6.20;;;;;;;5.79;60.98;101576.03;7994368;28;20064;-67
2021/11/17 07:09:17;;;;;;;11.15;6.68;;;;;;;5.79;61.18;101580.41;7992415;28;20405;-67
2021/11/17 07:13:08;;;;;;;10.73;6.15;;;;;;;5.78;61.17;101586.53;7986445;28;20497;-67
2021/11/17 07:16:59;;;;;;;10.10;6.97;;;;;;;5.80;60.98;101610.78;7987707;28;20047;-66
2021/11/17 07:20:52;;;;;;;9.75;5.35;;;;;;;5.84;61.07;101625.44;7985766;28;20029;-67
2021/11/17 07:24:43;;;;;;;8.30;5.32;;;;;;;5.90;61.10;101638.25;7987793;28;20029;-67
2021/11/17 07:28:36;;;;;;;12.30;5.20;;;;;;;5.91;61.02;101648.63;7988487;28;20127;-66
2021/11/17 07:32:27;;;;;;;9.65;5.60;;;;;;;5.91;60.95;101635.59;7980413;28;20028;-67
2021/11/17 07:36:20;;;;;;;10.23;5.85;;;;;;;5.98;61.27;101646.66;7979411;28;20099;-67
2021/11/17 07:40:12;;;;;;;9.82;5.53;;;;;;;6.05;61.21;101659.44;7986633;28;20029;-66
2021/11/17 07:44:02;;;;;;;9.48;5.40;;;;;;;6.09;61.30;101655.84;7991886;28;20028;-67
2021/11/17 07:47:53;;;;;;;9.02;5.25;;;;;;;6.13;61.47;101653.97;7995394;28;20466;-67
2021/11/17 07:51:44;;;;;;;8.50;5.22;;;;;;;6.17;61.30;101650.34;7978667;28;20017;-67
2021/11/17 07:55:39;;;;;;;11.15;5.70;;;;;;;6.21;61.27;101661.50;7991244;28;20025;-67
2021/11/17 07:59:30;;;;;;;11.40;5.53;;;;;;;6.25;61.00;101660.50;7991952;28;20021;-66
2021/11/17 08:03:24;;;;;;;10.27;5.47;;;;;;;6.26;61.35;101657.84;7982986;28;20104;-66
2021/11/17 08:07:19;;;;;;;9.10;5.85;;;;;;;6.28;60.97;101661.25;7986880;28;20032;-67
2021/11/17 08:11:13;;;;;;;10.05;5.55;;;;;;;6.30;60.96;101658.59;7994413;28;20091;-66
2021/11/17 08:15:04;;;;;;;12.02;6.22;;;;;;;6.30;60.93;101655.97;7990302;28;20029;-66
2021/11/17 08:18:55;;;;;;;9.77;5.30;;;;;;;6.33;61.05;101648.88;7986307;28;20048;-67
2021/11/17 08:22:49;;;;;;;8.02;4.82;;;;;;;6.35;61.35;101662.72;7995645;28;20021;-67
2021/11/17 08:26:39;;;;;;;8.55;5.45;;;;;;;6.36;61.03;101666.19;7992505;28;20056;-66
2021/11/17 08:30:33;;;;;;;9.20;5.28;;;;;;;6.36;61.07;101669.63;7975721;28;20404;-66
2021/11/17 08:34:23;;;;;;;9.25;5.32;;;;;;;6.38;61.22;101667.00;8002548;28;20709;-66
2021/11/17 08:38:18;;;;;;;7.82;4.93;;;;;;;6.39;61.28;101661.69;7991113;28;20035;-66
2021/11/17 08:42:11;;;;;;;10.32;5.10;;;;;;;6.42;61.49;101659.00;7984569;28;20088;-67
2021/11/17 08:46:02;;;;;;;10.52;5.47;;;;;;;6.43;61.24;101660.69;7995756;28;20040;-66
2021/11/17 08:49:54;;;;;;;7.03;4.60;;;;;;;6.45;61.41;101658.88;7986132;28;20041;-67
2021/11/17 08:53:46;;;;;;;10.38;5.40;;;;;;;6.48;61.13;101663.97;7981542;28;20065;-67
2021/11/17 08:57:41;;;;;;;8.15;4.63;;;;;;;6.47;61.25;101659.66;7992813;28;20040;-67
2021/11/17 09:01:34;;;;;;;9.85;4.93;;;;;;;6.52;61.09;101662.09;7992358;28;20033;-67
2021/11/17 09:05:45;;;;;;;10.40;5.45;;;;;;;6.54;61.01;101661.16;7987583;28;20509;-67
2021/11/17 09:09:45;;;;;;;9.13;4.82;;;;;;;6.56;61.64;101664.53;7988782;28;20033;-67
2021/11/17 09:13:35;;;;;;;8.93;5.22;;;;;;;6.57;61.30;101666.25;7993829;28;20036;-66
2021/11/17 09:17:26;;;;;;;10.00;5.63;;;;;;;6.61;61.60;101671.34;7998969;28;20030;-66
2021/11/17 09:21:17;;;;;;;8.20;5.03;;;;;;;6.63;61.67;101670.41;7995088;28;20095;-67
2021/11/17 09:25:09;;;;;;;9.85;5.55;;;;;;;6.68;61.29;101672.84;7992229;28;20566;-67
2021/11/17 09:29:01;;;;;;;12.85;5.25;;;;;;;6.71;61.71;101675.34;7986885;28;20033;-66
2021/11/17 09:32:55;;;;;;;11.13;6.10;;;;;;;6.74;61.75;101678.72;7981889;28;20121;-67
2021/11/17 09:36:51;;;;;;;9.70;6.10;;;;;;;6.76;61.65;101682.09;7991012;28;20478;-67
2021/11/17 09:41:11;;;;;;;10.57;6.57;;;;;;;6.80;61.63;101688.09;7995849;28;20033;-66
2021/11/17 09:45:04;;;;;;;13.48;7.60;;;;;;;6.82;61.45;101683.66;7979572;28;20406;-66
2021/11/17 09:48:59;;;;;;;10.05;6.43;;;;;;;6.85;61.39;101680.91;7983999;28;20116;-67
2021/11/17 09:52:57;;;;;;;11.02;6.30;;;;;;;6.89;61.55;101688.59;7979865;28;20118;-67
2021/11/17 09:57:00;;;;;;;10.65;6.18;;;;;;;6.92;61.50;101695.47;7985877;28;20435;-67
2021/11/17 10:00:56;;;;;;;11.65;6.82;;;;;;;6.95;61.54;101717.09;7989414;28;20025;-66
2021/11/17 10:05:26;;;;;;;11.82;6.90;;;;;;;6.94;61.83;101710.16;7993689;28;20037;-67
2021/11/17 10:13:29;;;;;;;9.68;6.15;;;;;;;6.92;62.05;101698.94;7985668;28;20102;-66
2021/11/17 10:17:43;;;;;;;11.00;6.05;;;;;;;6.95;61.84;101698.81;7978798;28;20032;-66
2021/11/17 10:21:36;;;;;;;11.48;5.80;;;;;;;7.02;62.09;101704.66;7980616;28;20124;-67
2021/11/17 10:25:44;;;;;;;13.57;7.20;;;;;;;7.00;62.09;101709.09;7989847;28;20033;-67
2021/11/17 10:29:51;;;;;;;11.07;6.60;;;;;;;7.06;61.81;101719.28;7992060;28;20029;-67
2021/11/17 10:33:45;;;;;;;12.60;7.15;;;;;;;7.08;62.05;101721.84;7987815;28;20086;-67
2021/11/17 10:38:04;;;;;;;11.75;7.03;;;;;;;7.07;61.88;101718.38;8001138;28;20083;-67
2021/11/17 10:42:12;;;;;;;11.32;6.68;;;;;;;7.10;61.99;101709.56;7986107;28;20045;-67
2021/11/17 10:46:08;;;;;;;13.55;7.00;;;;;;;7.08;62.11;101725.31;7985894;28;20029;-67
2021/11/17 10:50:04;;;;;;;11.52;6.65;;;;;;;7.11;62.08;101716.50;7990242;28;20052;-67
2021/11/17 10:53:57;;;;;;;15.32;7.55;;;;;;;7.14;62.40;101711.16;7990691;28;20083;-67
2021/11/17 10:57:48;;;;;;;18.83;8.32;;;;;;;7.15;61.97;101713.72;7986155;28;20058;-67
2021/11/17 11:01:43;;;;;;;13.07;7.47;;;;;;;7.10;62.16;101702.59;7982648;28;20421;-67
2021/11/17 11:05:43;;;;;;;13.23;7.70;;;;;;;7.20;62.07;101709.19;7981912;28;20038;-66
2021/11/17 11:09:43;;;;;;;16.65;8.63;;;;;;;7.20;62.24;101705.72;7995230;28;20040;-66
2021/11/17 11:13:50;;;;;;;17.48;8.73;;;;;;;7.22;62.18;101703.88;7993279;28;20052;-66
2021/11/17 11:18:06;;;;;;;17.98;9.20;;;;;;;7.24;62.22;101702.06;7986618;28;20025;-67
2021/11/17 11:22:07;;;;;;;14.80;8.38;;;;;;;7.24;62.45;101705.53;7994192;28;20686;-68
2021/11/17 11:26:14;;;;;;;15.68;8.05;;;;;;;7.25;62.31;101699.41;7986972;28;20124;-67
2021/11/17 11:30:06;;;;;;;17.45;8.38;;;;;;;7.29;62.60;101692.28;7985019;28;20592;-67
2021/11/17 11:33:56;;;;;;;19.17;9.15;;;;;;;7.32;62.49;101700.00;7983994;28;20037;-67
2021/11/17 11:37:47;;;;;;;15.15;7.03;;;;;;;7.35;62.45;101705.09;7989168;28;20031;-66
2021/11/17 11:41:46;;;;;;;21.55;8.50;;;;;;;7.39;62.54;101699.69;7989864;28;20115;-67
2021/11/17 11:45:45;;;;;;;16.45;7.72;;;;;;;7.44;62.42;101704.75;7987031;28;20407;-67
2021/11/17 11:49:49;;;;;;;16.88;9.07;;;;;;;7.49;62.37;101705.41;7980877;28;20876;-67
2021/11/17 11:53:58;;;;;;;16.02;9.25;;;;;;;7.49;62.51;101708.03;7990753;28;20030;-67
2021/11/17 11:57:54;;;;;;;18.70;9.52;;;;;;;7.50;62.57;101702.72;7988674;28;20534;-67
2021/11/17 12:01:44;;;;;;;23.17;10.35;;;;;;;7.52;62.70;101699.19;7993130;28;20033;-67
2021/11/17 12:05:38;;;;;;;19.45;9.05;;;;;;;7.52;62.59;101705.28;7993956;28;20087;-67
2021/11/17 12:09:50;;;;;;;22.13;9.85;;;;;;;7.55;62.84;101699.94;7997203;28;20024;-67
2021/11/17 12:14:12;;;;;;;21.58;10.30;;;;;;;7.57;62.93;101702.50;7989354;28;20083;-67
2021/11/17 12:18:21;;;;;;;23.45;10.55;;;;;;;7.61;62.60;101704.91;7989217;28;20041;-67
2021/11/17 12:22:19;;;;;;;20.98;10.45;;;;;;;7.64;62.47;101709.16;7991924;28;20036;-67
2021/11/17 12:26:19;;;;;;;19.70;9.65;;;;;;;7.63;62.68;101703.06;7992093;28;20029;-67
2021/11/17 12:30:19;;;;;;;21.08;9.98;;;;;;;7.65;62.89;101711.72;8000056;28;20401;-67
2021/11/17 12:34:39;;;;;;;23.30;10.50;;;;;;;7.66;62.71;101713.44;7985695;28;20462;-67
2021/11/17 12:38:30;;;;;;;24.80;9.80;;;;;;;7.68;62.93;101708.97;7981758;28;20045;-66
2021/11/17 12:42:50;;;;;;;25.45;10.40;;;;;;;7.67;62.86;101722.13;7995679;28;20025;-67
2021/11/17 12:46:40;;;;;;;19.58;9.82;;;;;;;7.67;62.63;101715.13;7988442;28;20120;-67
2021/11/17 12:50:34;;;;;;;20.55;10.60;;;;;;;7.69;62.84;101720.28;7987506;28;20096;-67
2021/11/17 12:54:42;;;;;;;23.38;10.50;;;;;;;7.70;62.65;101727.25;7993140;28;20505;-67
2021/11/17 12:58:45;;;;;;;25.33;10.63;;;;;;;7.70;62.81;101720.25;7991315;28;20021;-66
2021/11/17 13:02:45;;;;;;;24.30;11.43;;;;;;;7.69;62.64;101720.28;7991620;28;20037;-67
2021/11/17 13:06:45;;;;;;;20.10;9.93;;;;;;;7.75;62.84;101731.38;7985009;28;20106;-67
2021/11/17 13:11:09;;;;;;;26.60;11.20;;;;;;;7.77;63.07;101739.16;7991369;28;20485;-67
2021/11/17 13:15:17;;;;;;;25.73;11.27;;;;;;;7.78;63.19;101746.94;7970893;28;20049;-69
2021/11/17 13:19:30;;;;;;;26.25;10.32;;;;;;;7.79;63.00;101740.81;7987135;28;20483;-66
2021/11/17 13:23:31;;;;;;;24.92;10.02;;;;;;;7.81;63.14;101751.19;7991301;28;20033;-66
2021/11/17 13:27:34;;;;;;;22.98;10.38;;;;;;;7.83;62.94;101745.00;7983366;28;20455;-67
2021/11/17 13:31:29;;;;;;;23.23;9.60;;;;;;;7.86;62.97;101742.25;7984647;28;20037;-67
2021/11/17 13:35:37;;;;;;;21.33;9.77;;;;;;;7.88;62.93;101752.63;7987450;28;20110;-67
2021/11/17 13:39:27;;;;;;;22.88;10.07;;;;;;;7.88;63.06;101753.47;7981649;28;20025;-67
2021/11/17 13:43:19;;;;;;;20.77;10.35;;;;;;;7.91;62.74;101749.91;7981265;28;20033;-66
2021/11/17 13:47:13;;;;;;;20.85;10.15;;;;;;;7.87;63.06;101743.97;7992774;28;20049;-66
2021/11/17 13:51:04;;;;;;;21.92;9.82;;;;;;;7.87;62.87;101745.72;7992177;28;20152;-67
2021/11/17 13:54:55;;;;;;;23.92;10.00;;;;;;;7.93;62.90;101748.91;7992189;28;20033;-67
2021/11/17 13:58:46;;;;;;;22.20;8.98;;;;;;;7.99;62.86;101754.81;7992259;28;20063;-66
2021/11/17 14:02:37;;;;;;;25.48;9.65;;;;;;;8.02;63.07;101757.31;7992645;28;20041;-66
2021/11/17 14:06:31;;;;;;;25.80;9.43;;;;;;;8.04;63.16;101758.97;7984045;28;20045;-65
2021/11/17 14:10:22;;;;;;;18.83;9.07;;;;;;;8.09;62.98;101763.97;7984557;28;20041;-67
2021/11/17 14:14:13;;;;;;;18.38;7.75;;;;;;;8.07;63.07;101750.13;7984815;28;20037;-67
2021/11/17 14:18:09;;;;;;;19.38;9.10;;;;;;;8.12;63.42;101761.28;7990249;28;20038;-66
2021/11/17 14:22:03;;;;;;;20.13;8.70;;;;;;;8.19;63.21;101771.44;7985247;28;20071;-66
2021/11/17 14:25:54;;;;;;;17.15;8.45;;;;;;;8.19;63.24;101760.97;7986443;28;20043;-66
2021/11/17 14:29:58;;;;;;;14.20;7.63;;;;;;;8.27;63.27;101774.56;7997991;28;20167;-67
2021/11/17 14:33:56;;;;;;;;;;;;;;;8.20;63.01;101782.75;8000456;28;20656;-66
2021/11/17 14:37:46;;;;;;;15.77;6.50;;;;;;;8.27;63.24;101779.81;7996329;28;20379;-67
2021/11/17 14:41:37;;;;;;;22.88;7.10;;;;;;;8.29;62.95;101790.22;7993151;28;20998;-67
2021/11/17 14:45:30;;;;;;;16.55;7.35;;;;;;;8.31;63.17;101785.75;7991675;28;20037;-67
2021/11/17 14:49:21;;;;;;;16.38;8.13;;;;;;;8.30;62.77;101784.06;7985833;28;20033;-67
2021/11/17 14:53:12;;;;;;;13.93;6.85;;;;;;;8.32;62.91;101779.63;7973137;28;20044;-67
2021/11/17 14:57:05;;;;;;;13.07;6.85;;;;;;;8.32;62.89;101780.47;7978034;28;20029;-67
2021/11/17 15:00:59;;;;;;;14.05;6.97;;;;;;;8.34;62.97;101788.25;7977928;28;20040;-67
2021/11/17 15:04:52;;;;;;;15.30;7.57;;;;;;;8.29;63.03;101779.75;7989477;28;20068;-67
2021/11/17 15:08:43;;;;;;;17.90;7.55;;;;;;;8.34;62.78;101796.94;7986953;28;20025;-68
2021/11/17 15:12:37;;;;;;;20.30;9.07;;;;;;;8.32;63.10;101793.56;7986204;28;20029;-67
2021/11/17 15:16:27;;;;;;;13.02;7.32;;;;;;;8.33;63.10;101808.34;7993138;28;20037;-68
2021/11/17 15:20:18;;;;;;;16.38;8.00;;;;;;;8.34;63.05;101806.56;7987589;28;20025;-68
2021/11/17 15:24:09;;;;;;;19.63;9.02;;;;;;;8.34;62.78;101806.56;7987731;28;20029;-67
2021/11/17 15:28:24;;;;;;;18.48;8.63;;;;;;;8.33;62.73;101816.19;7991244;28;20578;-67
2021/11/17 15:32:18;;;;;;;22.90;9.50;;;;;;;8.34;63.01;101804.81;7992647;28;20072;-68
2021/11/17 15:36:10;;;;;;;22.73;8.90;;;;;;;8.33;62.66;101812.75;7993701;28;20540;-67
2021/11/17 15:40:05;;;;;;;18.13;8.75;;;;;;;8.30;62.54;101811.09;7991264;28;20646;-68
2021/11/17 15:43:55;;;;;;;19.90;9.40;;;;;;;8.26;62.54;101813.91;7995249;28;20435;-68
2021/11/17 15:47:48;;;;;;;21.42;9.43;;;;;;;8.19;62.43;101825.53;7999393;28;20036;-68
2021/11/17 15:51:41;;;;;;;22.75;9.63;;;;;;;8.09;62.46;101832.88;7996274;28;20028;-68
2021/11/17 15:55:38;;;;;;;18.00;9.10;;;;;;;8.05;62.30;101836.53;7998073;28;20494;-68
2021/11/17 15:59:29;;;;;;;19.05;9.38;;;;;;;8.04;62.28;101827.00;7992821;28;20025;-68
2021/11/17 16:03:20;;;;;;;17.20;8.43;;;;;;;8.03;62.07;101835.75;7997319;28;20028;-68
2021/11/17 16:07:15;;;;;;;23.17;10.48;;;;;;;8.01;62.32;101841.94;7998744;28;20037;-68
2021/11/17 16:11:07;;;;;;;18.95;8.60;;;;;;;7.94;62.22;101844.81;7994159;28;20707;-68
2021/11/17 16:14:58;;;;;;;16.25;7.47;;;;;;;7.90;62.27;101837.16;7988638;28;20029;-68
2021/11/17 16:18:48;;;;;;;16.13;7.45;;;;;;;7.87;61.86;101852.97;7996163;28;20045;-68
2021/11/17 16:22:49;;;;;;;20.73;9.45;;;;;;;7.83;61.97;101860.09;7994855;28;20484;-68
2021/11/17 16:26:40;;;;;;;20.73;9.15;;;;;;;7.76;62.01;101856.00;7997132;28;20765;-68
2021/11/17 16:30:31;;;;;;;20.75;9.38;;;;;;;7.80;62.33;101864.56;8004444;28;20039;-68
2021/11/17 16:34:24;;;;;;;19.30;9.38;;;;;;;7.81;62.32;101876.75;8004116;28;20572;-68
2021/11/17 16:38:15;;;;;;;19.83;10.32;;;;;;;7.73;62.06;101865.72;8002303;28;20867;-68
2021/11/17 16:42:06;;;;;;;18.52;8.45;;;;;;;7.80;62.38;101873.28;7997274;28;20036;-68
2021/11/17 16:45:57;;;;;;;16.23;8.75;;;;;;;7.82;62.45;101881.06;7989385;28;20041;-68
2021/11/17 16:49:49;;;;;;;23.42;9.32;;;;;;;7.77;62.28;101878.63;7996611;28;20103;-69
2021/11/17 16:53:39;;;;;;;22.13;8.95;;;;;;;7.85;62.40;101901.88;7984531;28;20770;-69
2021/11/17 16:57:31;;;;;;;19.98;8.77;;;;;;;7.86;62.35;101919.28;7995782;28;20033;-67
2021/11/17 17:01:23;;;;;;;19.88;8.82;;;;;;;7.85;62.15;101917.56;7990825;28;20069;-68
2021/11/17 17:05:15;;;;;;;19.98;8.68;;;;;;;7.87;62.26;101921.00;7991315;28;20041;-68
2021/11/17 17:09:06;;;;;;;23.67;9.40;;;;;;;7.89;62.63;101924.38;7993676;28;20480;-67
2021/11/17 17:12:57;;;;;;;17.25;8.30;;;;;;;7.90;62.67;101929.56;7989206;28;20703;-67
2021/11/17 17:16:48;;;;;;;20.77;9.23;;;;;;;7.88;62.39;101923.53;7988701;28;20067;-68
2021/11/17 17:20:39;;;;;;;20.73;9.52;;;;;;;7.95;62.49;101940.72;7992985;28;20033;-67
2021/11/17 17:24:29;;;;;;;17.90;8.13;;;;;;;7.95;62.79;101948.56;7990682;28;20756;-68
2021/11/17 17:28:24;;;;;;;20.95;9.40;;;;;;;7.90;62.59;101954.88;7991124;28;20039;-69
2021/11/17 17:32:14;;;;;;;18.70;9.82;;;;;;;7.90;62.58;101963.59;7990238;28;20043;-68
2021/11/17 17:36:08;;;;;;;19.85;9.85;;;;;;;7.83;62.59;101958.66;7985886;28;20033;-68
2021/11/17 17:39:59;;;;;;;15.77;8.75;;;;;;;7.84;62.46;101976.03;7983130;28;20072;-69
2021/11/17 17:43:50;;;;;;;15.80;9.02;;;;;;;7.77;62.42;101980.66;7991067;28;20500;-67
2021/11/17 17:47:41;;;;;;;18.95;9.10;;;;;;;7.76;62.21;101991.16;7989276;28;20064;-69
2021/11/17 17:51:32;;;;;;;20.58;10.10;;;;;;;7.70;62.50;101987.03;7986849;28;20037;-69
2021/11/17 17:55:23;;;;;;;19.77;10.25;;;;;;;7.70;62.15;102001.84;7987819;28;20037;-74
2021/11/17 17:59:18;;;;;;;18.02;8.77;;;;;;;7.65;62.03;102002.00;7985735;28;20025;-73
2021/11/17 18:03:09;;;;;;;18.45;9.95;;;;;;;7.63;61.99;102010.84;7985084;28;20025;-67
2021/11/17 18:07:00;;;;;;;18.77;8.73;;;;;;;7.58;61.89;102018.00;7983830;28;20511;-72
2021/11/17 18:11:02;;;;;;;20.90;9.65;;;;;;;7.50;62.26;102020.88;8032697;28;20620;-71
2021/11/17 18:14:53;;;;;;;18.33;10.00;;;;;;;7.46;61.92;102027.94;8028700;28;20032;-71
2021/11/17 18:18:44;;;;;;;20.88;10.10;;;;;;;7.45;62.18;102028.88;8030067;28;20083;-70
2021/11/17 18:22:35;;;;;;;18.45;9.88;;;;;;;7.43;62.16;102045.50;8026652;28;20557;-70
2021/11/17 18:26:43;;;;;;;22.00;10.82;;;;;;;7.40;62.12;102050.84;8031360;28;20032;-70
2021/11/17 18:30:35;;;;;;;;;;;;;;;7.30;62.03;102054.69;8030925;28;20032;-69
2021/11/17 18:34:26;;;;;;;18.23;8.77;;;;;;;7.30;61.87;102059.94;8030708;28;19921;-69
2021/11/17 18:38:16;;;;;;;20.30;9.27;;;;;;;7.28;62.04;102062.56;8030065;28;20025;-67
2021/11/17 18:42:20;;;;;;;17.30;9.30;;;;;;;7.25;62.17;102069.66;8029713;28;20461;-70
2021/11/17 18:46:11;;;;;;;21.20;9.82;;;;;;;7.22;61.76;102068.00;8029469;28;20182;-70
2021/11/17 18:50:03;;;;;;;19.55;8.60;;;;;;;7.19;61.77;102082.94;8029592;28;20032;-70
2021/11/17 18:53:54;;;;;;;20.88;10.35;;;;;;;7.15;62.04;102081.31;8027979;28;20029;-70
2021/11/17 18:57:45;;;;;;;22.58;9.93;;;;;;;7.06;61.63;102074.63;8030568;28;20274;-69
2021/11/17 19:02:04;;;;;;;20.02;10.13;;;;;;;7.06;61.97;102089.44;8030746;28;20435;-70
2021/11/17 19:05:55;;;;;;;;;;;;;;;6.95;61.51;102089.81;8014211;28;20063;-68
2021/11/17 19:09:45;;;;;;;18.33;8.75;;;;;;;6.95;61.97;102103.72;8025243;28;19920;-70
2021/11/17 19:13:40;;;;;;;16.67;8.77;;;;;;;6.91;61.78;102101.25;8026359;28;20039;-70
2021/11/17 19:17:32;;;;;;;15.52;8.38;;;;;;;6.89;61.71;102105.66;8029102;28;20028;-69
2021/11/17 19:21:24;;;;;;;18.58;9.10;;;;;;;6.83;61.76;102109.34;8011107;28;20032;-71
2021/11/17 19:25:23;;;;;;;16.08;8.98;;;;;;;6.82;61.50;102107.63;8005159;28;20137;-72
2021/11/17 19:29:14;;;;;;;23.05;10.70;;;;;;;6.78;61.32;102113.84;8005045;28;20021;-71
2021/11/17 19:33:06;;;;;;;18.77;10.30;;;;;;;6.75;61.40;102113.09;8009392;28;20079;-71
2021/11/17 19:36:58;;;;;;;22.55;10.35;;;;;;;6.71;61.55;102119.28;8009146;28;20405;-71
2021/11/17 19:40:57;;;;;;;17.25;10.10;;;;;;;6.62;61.50;102112.56;8008609;28;20466;-71
2021/11/17 19:44:48;;;;;;;20.02;8.48;;;;;;;6.58;61.23;102116.16;8007927;28;20029;-73
2021/11/17 19:48:40;;;;;;;18.60;8.98;;;;;;;6.61;61.49;102138.72;8008123;28;20430;-71
2021/11/17 19:52:33;;;;;;;16.23;8.90;;;;;;;6.57;61.35;102138.81;8006231;28;20033;-71
2021/11/17 19:56:24;;;;;;;16.20;8.05;;;;;;;6.55;61.06;102143.19;8008082;28;20068;-70
2021/11/17 20:00:19;;;;;;;20.58;9.35;;;;;;;6.52;61.53;102145.91;8007957;28;20029;-70
2021/11/17 20:04:10;;;;;;;17.50;8.32;;;;;;;6.51;61.66;102154.63;8006046;28;20497;-72
2021/11/17 20:08:00;;;;;;;24.23;8.75;;;;;;;6.49;61.68;102158.19;8006167;28;20136;-71
2021/11/17 20:11:51;;;;;;;19.45;8.68;;;;;;;6.44;61.48;102171.38;8007578;28;20027;-72
2021/11/17 20:15:45;;;;;;;22.25;10.32;;;;;;;6.47;61.49;102178.28;8007608;28;20040;-72
2021/11/17 20:19:37;;;;;;;19.27;8.98;;;;;;;6.42;61.79;102174.94;8007291;28;20036;-71
2021/11/17 20:23:27;;;;;;;17.27;7.93;;;;;;;6.41;61.70;102181.91;8004302;28;20032;-70
2021/11/17 20:27:19;;;;;;;16.83;7.70;;;;;;;6.42;61.35;102193.22;8003314;28;20029;-69
2021/11/17 20:31:11;;;;;;;17.67;8.02;;;;;;;6.40;61.69;102195.00;8006110;28;20107;-70
2021/11/17 20:35:02;;;;;;;16.20;8.48;;;;;;;6.38;61.30;102202.88;8004067;28;20025;-72
2021/11/17 20:38:53;;;;;;;20.90;8.07;;;;;;;6.35;61.40;102192.50;8005917;28;20132;-70
2021/11/17 20:42:46;;;;;;;16.58;8.90;;;;;;;6.30;61.31;102186.59;8006834;28;20040;-71
2021/11/17 20:46:37;;;;;;;19.27;8.38;;;;;;;6.30;61.17;102189.19;7999763;28;20493;-71
2021/11/17 20:50:30;;;;;;;17.40;7.22;;;;;;;6.28;61.32;102200.56;8001759;28;20504;-70
2021/11/17 20:54:20;;;;;;;16.30;7.07;;;;;;;6.23;61.05;102200.69;8001002;28;20047;-71
2021/11/17 20:58:11;;;;;;;10.77;5.93;;;;;;;6.21;61.23;102193.78;8006190;28;20021;-70